Beeville, Texas
Current Conditions -  °F | °C
As of 1:35 AM on Wednesday 22 Oct 2014 (Local Time) from KBEA Reporting Station
Clear Clear  
Wind Chill: 65°   Ceiling: Unl
Heat Index: 65°   Visibility: 10mi
Dew Point: 60°   Wind: 5mph
Humidity: 84%   Direction: 50°NE
Pressure: 30.01"   Gusts: NA
Location:  28.4°N, 97.75°W
Report Text: KBEA 220635Z AUTO 05004KT 10SM CLR 19/16 A3001 RMK AO2 T01860158
Loading
Personal Weather Stations






























Interactive Weather Map
Tropical Storm Tracking
New forecast layout! Learn more

10-Day Weather Forecast

Advertisements
Track Severe Weather on mobile